createdAt,value
2022-09-11T00:01:56.759Z,2.40
2022-09-11T00:04:58.152Z,2.22
2022-09-11T00:07:58.692Z,2.33
2022-09-11T00:11:11.978Z,2.17
2022-09-11T00:14:14.582Z,2.45
2022-09-11T00:17:17.424Z,2.47
2022-09-11T00:20:18.633Z,2.40
2022-09-11T00:23:21.957Z,2.35
2022-09-11T00:26:24.981Z,2.13
2022-09-11T00:29:26.725Z,2.35
2022-09-11T00:32:27.623Z,1.92
2022-09-11T00:35:29.414Z,1.85
2022-09-11T00:38:33.682Z,1.92
2022-09-11T00:41:39.022Z,2.00
2022-09-11T00:44:43.210Z,1.88
2022-09-11T00:47:44.323Z,1.80
2022-09-11T00:50:45.152Z,2.08
2022-09-11T00:53:48.024Z,2.00
2022-09-11T00:56:50.438Z,1.85
2022-09-11T00:59:55.693Z,2.15
2022-09-11T01:02:58.024Z,2.13
2022-09-11T01:05:59.879Z,1.80
2022-09-11T01:09:02.303Z,2.03
2022-09-11T01:12:39.047Z,2.00
2022-09-11T01:16:04.407Z,1.85
2022-09-11T01:19:33.226Z,1.77
2022-09-11T01:23:14.575Z,2.20
2022-09-11T01:26:34.819Z,2.13
2022-09-11T01:29:51.709Z,2.30
2022-09-11T01:33:20.488Z,2.30
2022-09-11T01:36:39.230Z,2.55
2022-09-11T01:39:54.006Z,2.10
2022-09-11T01:43:06.338Z,2.05
2022-09-11T01:46:09.299Z,2.40
2022-09-11T01:49:20.550Z,2.88
2022-09-11T01:52:55.518Z,2.33
2022-09-11T01:56:08.212Z,2.15
2022-09-11T01:59:19.291Z,2.15
2022-09-11T02:02:29.124Z,2.00
2022-09-11T02:05:44.017Z,2.58
2022-09-11T02:08:58.752Z,2.00
2022-09-11T02:12:10.240Z,2.15
2022-09-11T02:15:16.065Z,2.20
2022-09-11T02:18:54.881Z,2.25
2022-09-11T02:21:58.637Z,2.25
2022-09-11T02:24:59.343Z,2.33
2022-09-11T02:28:00.232Z,2.42
2022-09-11T02:31:03.605Z,2.25
2022-09-11T02:34:04.417Z,2.58
2022-09-11T02:37:13.765Z,2.80
2022-09-11T02:40:39.674Z,2.53
2022-09-11T02:44:27.298Z,2.50
2022-09-11T02:47:33.620Z,2.58
2022-09-11T02:51:08.725Z,2.30
2022-09-11T02:54:31.495Z,2.50
2022-09-11T02:57:45.646Z,3.55
2022-09-11T03:00:48.174Z,2.67
2022-09-11T03:03:49.010Z,2.20
2022-09-11T03:06:52.979Z,2.40
2022-09-11T03:09:54.217Z,2.35
2022-09-11T03:12:59.833Z,2.38
2022-09-11T03:16:05.926Z,2.80
2022-09-11T03:19:07.989Z,2.30
2022-09-11T03:22:09.327Z,2.08
2022-09-11T03:25:11.915Z,2.25
2022-09-11T03:28:12.960Z,2.53
2022-09-11T03:31:14.343Z,2.50
2022-09-11T03:34:17.871Z,2.25
2022-09-11T03:37:19.429Z,2.15
2022-09-11T03:40:21.636Z,2.38
2022-09-11T03:43:22.694Z,2.20
2022-09-11T03:46:24.464Z,2.65
2022-09-11T03:49:25.572Z,2.85
2022-09-11T03:52:26.363Z,2.40
2022-09-11T03:55:27.826Z,2.20
2022-09-11T03:58:29.074Z,2.38
2022-09-11T04:01:30.448Z,2.20
2022-09-11T04:04:31.764Z,2.63
2022-09-11T04:07:32.743Z,2.30
2022-09-11T04:10:35.448Z,2.08
2022-09-11T04:13:41.357Z,2.40
2022-09-11T04:16:46.493Z,2.55
2022-09-11T04:19:47.266Z,3.10
2022-09-11T04:22:48.507Z,2.60
2022-09-11T04:25:49.690Z,2.50
2022-09-11T04:28:51.766Z,2.60
2022-09-11T04:31:53.617Z,2.13
2022-09-11T04:34:58.366Z,2.50
2022-09-11T04:37:59.336Z,2.42
2022-09-11T04:41:06.593Z,2.20
2022-09-11T04:44:07.951Z,2.00
2022-09-11T04:47:16.283Z,2.15
2022-09-11T04:50:19.739Z,2.08
2022-09-11T04:53:40.515Z,1.80
2022-09-11T04:56:42.201Z,2.13
2022-09-11T04:59:44.874Z,1.98
2022-09-11T05:02:47.875Z,1.92
2022-09-11T05:05:49.402Z,2.10
2022-09-11T05:08:51.183Z,2.40
2022-09-11T05:11:52.489Z,2.25
2022-09-11T05:14:55.754Z,1.60
2022-09-11T05:17:57.345Z,2.13
2022-09-11T05:21:08.447Z,2.05
2022-09-11T05:24:10.032Z,2.00
2022-09-11T05:27:12.159Z,1.92
2022-09-11T05:30:14.357Z,2.30
2022-09-11T05:33:15.281Z,2.78
2022-09-11T05:36:16.961Z,2.30
2022-09-11T05:39:18.518Z,2.25
2022-09-11T05:42:20.541Z,2.55
2022-09-11T05:45:25.694Z,2.15
2022-09-11T05:48:32.875Z,3.05
2022-09-11T05:51:35.955Z,2.20
2022-09-11T05:54:37.268Z,2.15
2022-09-11T05:57:39.524Z,2.20
2022-09-11T06:00:41.116Z,2.22
2022-09-11T06:03:42.992Z,2.33
2022-09-11T06:06:48.130Z,2.22
2022-09-11T06:09:50.126Z,2.47
2022-09-11T06:12:51.330Z,2.30
2022-09-11T06:15:52.749Z,2.58
2022-09-11T06:18:54.831Z,2.20
2022-09-11T06:21:56.788Z,2.00
2022-09-11T06:25:14.269Z,1.80
2022-09-11T06:28:15.274Z,2.55
2022-09-11T06:31:20.536Z,2.22
2022-09-11T06:34:21.472Z,2.58
2022-09-11T06:37:22.756Z,1.85
2022-09-11T06:40:25.256Z,1.88
2022-09-11T06:43:28.006Z,1.83
2022-09-11T06:46:29.624Z,2.88
2022-09-11T06:49:32.284Z,2.10
2022-09-11T06:53:10.358Z,2.00
2022-09-11T06:56:22.415Z,2.13
2022-09-11T06:59:24.749Z,3.03
2022-09-11T07:02:26.673Z,2.15
2022-09-11T07:05:29.161Z,1.90
2022-09-11T07:08:30.566Z,2.00
2022-09-11T07:11:34.861Z,1.60
2022-09-11T07:14:36.072Z,1.65
2022-09-11T07:17:49.021Z,2.00
2022-09-11T07:20:50.203Z,2.13
2022-09-11T07:23:55.806Z,2.05
2022-09-11T07:26:56.885Z,3.42
2022-09-11T07:30:05.761Z,2.17
2022-09-11T07:33:10.972Z,2.00
2022-09-11T07:36:25.286Z,1.92
2022-09-11T07:39:27.860Z,1.70
2022-09-11T07:42:38.326Z,1.83
2022-09-11T07:45:40.629Z,1.90
2022-09-11T07:48:45.543Z,1.98
2022-09-11T07:51:46.522Z,2.08
2022-09-11T07:54:52.284Z,3.47
2022-09-11T07:57:54.962Z,1.85
2022-09-11T08:01:00.446Z,1.85
2022-09-11T08:04:08.216Z,1.75
2022-09-11T08:07:10.644Z,1.60
2022-09-11T08:10:26.699Z,2.65
2022-09-11T08:13:29.696Z,1.83
2022-09-11T08:16:31.541Z,2.03
2022-09-11T08:19:34.282Z,1.65
2022-09-11T08:22:36.679Z,15.80
2022-09-11T08:25:38.980Z,2.10
2022-09-11T08:28:43.258Z,3.90
2022-09-11T08:31:45.452Z,1.70
2022-09-11T08:34:47.658Z,1.90
2022-09-11T08:37:51.672Z,1.80
2022-09-11T08:41:13.053Z,2.45
2022-09-11T08:44:27.583Z,1.85
2022-09-11T08:47:40.635Z,1.95
2022-09-11T08:50:44.299Z,1.85
2022-09-11T08:53:48.555Z,2.08
2022-09-11T08:56:51.975Z,1.95
2022-09-11T09:00:07.646Z,1.55
2022-09-11T09:04:01.731Z,1.75
2022-09-11T09:07:32.304Z,1.98
2022-09-11T09:10:56.759Z,1.95
2022-09-11T09:14:10.756Z,1.88
2022-09-11T09:17:33.338Z,2.60
2022-09-11T09:20:49.656Z,2.25
2022-09-11T09:23:55.692Z,3.28
2022-09-11T09:26:57.667Z,2.00
2022-09-11T09:30:03.850Z,1.88
2022-09-11T09:33:15.806Z,3.50
2022-09-11T09:36:31.450Z,1.88
2022-09-11T09:39:36.977Z,2.25
2022-09-11T09:43:32.700Z,1.92
2022-09-11T09:46:51.318Z,2.00
2022-09-11T09:49:53.172Z,1.90
2022-09-11T09:53:28.330Z,2.17
2022-09-11T09:56:34.156Z,1.75
2022-09-11T09:59:57.512Z,2.25
2022-09-11T10:02:58.739Z,1.75
2022-09-11T10:06:00.404Z,1.60
2022-09-11T10:09:03.419Z,1.77
2022-09-11T10:12:12.775Z,1.88
2022-09-11T10:15:22.563Z,1.25
2022-09-11T10:18:32.638Z,1.23
2022-09-11T10:21:34.087Z,1.10
2022-09-11T10:24:35.183Z,1.30
2022-09-11T10:27:55.305Z,1.67
2022-09-11T10:31:04.483Z,2.17
2022-09-11T10:34:07.488Z,1.60
2022-09-11T10:37:14.125Z,1.20
2022-09-11T10:40:23.512Z,1.40
2022-09-11T10:43:36.378Z,1.63
2022-09-11T10:46:43.115Z,2.08
2022-09-11T10:49:45.737Z,1.80
2022-09-11T10:53:05.887Z,1.95
2022-09-11T10:56:10.078Z,1.85
2022-09-11T10:59:22.990Z,1.70
2022-09-11T11:02:34.527Z,1.63
2022-09-11T11:05:46.706Z,1.90
2022-09-11T11:09:06.379Z,1.80
2022-09-11T11:12:50.213Z,1.40
2022-09-11T11:16:57.545Z,1.85
2022-09-11T11:20:29.236Z,1.33
2022-09-11T11:23:52.180Z,1.90
2022-09-11T11:27:07.875Z,1.70
2022-09-11T11:31:19.275Z,1.40
2022-09-11T11:35:06.620Z,1.67
2022-09-11T11:38:27.761Z,1.52
2022-09-11T11:41:35.928Z,1.38
2022-09-11T11:44:58.592Z,1.58
2022-09-11T11:48:13.294Z,1.50
2022-09-11T11:51:32.243Z,1.20
2022-09-11T11:54:59.239Z,1.30
2022-09-11T11:58:40.555Z,1.42
2022-09-11T12:01:56.327Z,1.30
2022-09-11T12:05:13.403Z,1.58
2022-09-11T12:08:16.937Z,2.15
2022-09-11T12:11:30.748Z,2.00
2022-09-11T12:14:34.320Z,2.15
2022-09-11T12:17:39.939Z,1.92
2022-09-11T12:20:45.169Z,1.70
2022-09-11T12:23:47.384Z,1.95
2022-09-11T12:27:36.373Z,2.67
2022-09-11T12:31:08.015Z,2.08
2022-09-11T12:34:37.120Z,1.60
2022-09-11T12:37:39.312Z,1.90
2022-09-11T12:41:15.626Z,1.73
2022-09-11T12:44:54.205Z,2.90
2022-09-11T12:47:55.262Z,2.00
2022-09-11T12:50:58.127Z,1.98
2022-09-11T12:54:16.332Z,2.00
2022-09-11T12:57:30.947Z,2.08
2022-09-11T13:00:42.321Z,1.80
2022-09-11T13:03:56.310Z,1.60
2022-09-11T13:07:08.519Z,1.70
2022-09-11T13:10:36.729Z,1.40
2022-09-11T13:13:47.097Z,1.65
2022-09-11T13:16:49.381Z,1.58
2022-09-11T13:19:51.694Z,1.80
2022-09-11T13:22:58.202Z,1.63
2022-09-11T13:25:59.505Z,1.70
2022-09-11T13:29:01.893Z,1.40
2022-09-11T13:32:11.619Z,1.40
2022-09-11T13:35:18.008Z,1.58
2022-09-11T13:38:26.279Z,1.50
2022-09-11T13:41:37.636Z,1.48
2022-09-11T13:44:52.183Z,1.15
2022-09-11T13:47:54.675Z,1.55
2022-09-11T13:50:57.847Z,1.20
2022-09-11T13:54:14.940Z,1.30
2022-09-11T13:57:18.651Z,1.33
2022-09-11T14:00:48.213Z,1.48
2022-09-11T14:03:49.473Z,1.40
2022-09-11T14:06:50.650Z,1.40
2022-09-11T14:10:07.441Z,1.30
2022-09-11T14:13:48.793Z,1.30
2022-09-11T14:17:01.292Z,1.20
2022-09-11T14:20:03.121Z,1.42
2022-09-11T14:23:06.659Z,1.90
2022-09-11T14:26:31.431Z,1.60
2022-09-11T14:29:37.602Z,1.60
2022-09-11T14:32:39.150Z,1.77
2022-09-11T14:35:40.670Z,1.40
2022-09-11T14:38:41.890Z,1.50
2022-09-11T14:41:45.475Z,1.80
2022-09-11T14:44:46.477Z,1.40
2022-09-11T14:47:47.263Z,1.50
2022-09-11T14:50:48.407Z,1.23
2022-09-11T14:53:49.568Z,1.00
2022-09-11T14:56:50.690Z,1.40
2022-09-11T14:59:52.990Z,1.40
2022-09-11T15:02:54.791Z,1.45
2022-09-11T15:05:58.479Z,1.50
2022-09-11T15:09:01.653Z,1.50
2022-09-11T15:12:03.105Z,1.40
2022-09-11T15:15:05.086Z,1.25
2022-09-11T15:18:06.134Z,1.67
2022-09-11T15:21:06.976Z,1.40
2022-09-11T15:24:07.648Z,1.60
2022-09-11T15:27:10.477Z,1.80
2022-09-11T15:30:12.484Z,1.70
2022-09-11T15:33:13.282Z,1.38
2022-09-11T15:36:14.398Z,1.50
2022-09-11T15:39:19.817Z,1.60
2022-09-11T15:42:21.039Z,1.30
2022-09-11T15:45:22.171Z,1.33
2022-09-11T15:48:23.432Z,1.23
2022-09-11T15:51:24.502Z,1.00
2022-09-11T15:54:26.542Z,1.30
2022-09-11T15:57:31.087Z,1.20
2022-09-11T16:00:34.182Z,1.45
2022-09-11T16:03:35.441Z,1.50
2022-09-11T16:06:41.043Z,1.30
2022-09-11T16:09:42.615Z,1.40
2022-09-11T16:12:43.889Z,1.40
2022-09-11T16:15:45.688Z,1.50
2022-09-11T16:18:47.127Z,1.20
2022-09-11T16:21:49.658Z,1.30
2022-09-11T16:24:50.529Z,1.23
2022-09-11T16:27:52.370Z,1.20
2022-09-11T16:30:54.107Z,1.20
2022-09-11T16:33:57.156Z,1.20
2022-09-11T16:36:59.437Z,1.13
2022-09-11T16:40:04.623Z,1.00
2022-09-11T16:43:05.826Z,1.20
2022-09-11T16:46:08.787Z,1.40
2022-09-11T16:49:17.661Z,1.10
2022-09-11T16:52:18.552Z,1.15
2022-09-11T16:55:20.311Z,1.05
2022-09-11T16:58:21.560Z,1.10
2022-09-11T17:01:26.245Z,1.50
2022-09-11T17:04:28.201Z,1.38
2022-09-11T17:07:28.950Z,1.20
2022-09-11T17:10:29.692Z,1.83
2022-09-11T17:13:30.551Z,1.25
2022-09-11T17:16:34.817Z,1.30
2022-09-11T17:19:36.174Z,1.20
2022-09-11T17:22:38.140Z,1.20
2022-09-11T17:25:41.055Z,1.20
2022-09-11T17:28:44.895Z,1.63
2022-09-11T17:31:46.553Z,1.50
2022-09-11T17:34:47.981Z,1.52
2022-09-11T17:37:49.125Z,1.25
2022-09-11T17:40:49.880Z,1.20
2022-09-11T17:43:51.691Z,1.40
2022-09-11T17:46:52.579Z,1.65
2022-09-11T17:49:53.431Z,1.50
2022-09-11T17:52:54.330Z,1.50
2022-09-11T17:56:04.997Z,1.30
2022-09-11T17:59:05.745Z,1.27
2022-09-11T18:02:07.291Z,1.70
2022-09-11T18:05:08.327Z,1.33
2022-09-11T18:08:10.172Z,1.90
2022-09-11T18:11:11.694Z,1.73
2022-09-11T18:14:14.234Z,1.50
2022-09-11T18:17:15.269Z,2.10
2022-09-11T18:20:17.788Z,2.47
2022-09-11T18:23:19.719Z,2.70
2022-09-11T18:26:26.394Z,2.30
2022-09-11T18:29:27.453Z,2.50
2022-09-11T18:32:29.984Z,1.98
2022-09-11T18:35:33.032Z,2.15
2022-09-11T18:38:34.007Z,1.95
2022-09-11T18:41:35.313Z,2.20
2022-09-11T18:44:36.452Z,2.10
2022-09-11T18:47:37.949Z,2.28
2022-09-11T18:50:38.817Z,2.17
2022-09-11T18:53:39.691Z,2.10
2022-09-11T18:56:41.033Z,2.47
2022-09-11T18:59:43.623Z,2.50
2022-09-11T19:02:47.356Z,2.00
2022-09-11T19:05:48.538Z,1.98
2022-09-11T19:08:51.322Z,2.35
2022-09-11T19:11:54.862Z,2.28
2022-09-11T19:14:55.985Z,2.20
2022-09-11T19:18:00.249Z,2.53
2022-09-11T19:21:10.331Z,2.10
2022-09-11T19:24:12.671Z,2.40
2022-09-11T19:27:13.527Z,2.17
2022-09-11T19:30:16.375Z,2.30
2022-09-11T19:33:17.371Z,2.25
2022-09-11T19:36:22.855Z,2.40
2022-09-11T19:39:24.742Z,2.80
2022-09-11T19:42:25.702Z,2.90
2022-09-11T19:45:26.524Z,2.50
2022-09-11T19:48:27.102Z,2.85
2022-09-11T19:51:42.728Z,2.65
2022-09-11T19:54:43.407Z,2.67
2022-09-11T19:57:44.132Z,2.60
2022-09-11T20:00:45.416Z,2.33
2022-09-11T20:03:46.678Z,2.92
2022-09-11T20:09:47.302Z,2.95
2022-09-11T20:12:48.533Z,2.75
2022-09-11T20:15:49.359Z,2.60
2022-09-11T20:19:05.518Z,3.05
2022-09-11T20:22:07.642Z,2.95
2022-09-11T20:25:09.118Z,3.10
2022-09-11T20:28:10.680Z,3.20
2022-09-11T20:31:27.528Z,2.90
2022-09-11T20:34:28.553Z,3.17
2022-09-11T20:37:29.889Z,3.25
2022-09-11T20:40:30.868Z,4.20
2022-09-11T20:43:31.920Z,3.60
2022-09-11T20:46:33.143Z,3.58
2022-09-11T20:49:34.350Z,3.83
2022-09-11T20:52:39.394Z,3.55
2022-09-11T20:55:40.788Z,3.22
2022-09-11T20:58:41.975Z,3.50
2022-09-11T21:01:43.370Z,3.40
2022-09-11T21:04:44.330Z,3.20
2022-09-11T21:07:45.421Z,3.20
2022-09-11T21:10:46.296Z,3.58
2022-09-11T21:13:47.694Z,3.80
2022-09-11T21:16:48.674Z,3.47
2022-09-11T21:19:51.423Z,3.10
2022-09-11T21:22:53.952Z,3.33
2022-09-11T21:25:55.172Z,3.50
2022-09-11T21:29:04.474Z,3.47
2022-09-11T21:32:05.430Z,3.30
2022-09-11T21:35:07.192Z,3.63
2022-09-11T21:38:07.953Z,3.42
2022-09-11T21:41:11.676Z,3.33
2022-09-11T21:44:12.524Z,3.60
2022-09-11T21:47:13.281Z,4.13
2022-09-11T21:50:14.466Z,4.25
2022-09-11T21:53:15.826Z,4.18
2022-09-11T21:56:26.763Z,4.18
2022-09-11T21:59:27.720Z,4.03
2022-09-11T22:02:28.497Z,4.47
2022-09-11T22:05:29.668Z,4.93
2022-09-11T22:08:31.138Z,5.60
2022-09-11T22:11:31.841Z,5.68
2022-09-11T22:14:32.727Z,5.13
2022-09-11T22:17:34.051Z,5.43
2022-09-11T22:20:37.764Z,5.72
2022-09-11T22:23:38.764Z,6.00
2022-09-11T22:26:39.741Z,5.80
2022-09-11T22:29:46.399Z,6.00
2022-09-11T22:32:47.851Z,6.13
2022-09-11T22:35:49.547Z,5.95
2022-09-11T22:38:50.450Z,6.05
2022-09-11T22:41:51.214Z,6.15
2022-09-11T22:44:52.053Z,6.63
2022-09-11T22:47:52.792Z,6.28
2022-09-11T22:50:54.355Z,5.60
2022-09-11T22:53:56.035Z,6.60
2022-09-11T22:56:56.817Z,6.03
2022-09-11T22:59:58.227Z,6.50
2022-09-11T23:02:59.054Z,6.72
2022-09-11T23:06:21.446Z,7.05
2022-09-11T23:09:22.262Z,5.65
2022-09-11T23:12:23.166Z,5.38
2022-09-11T23:15:24.413Z,5.38
2022-09-11T23:18:27.554Z,5.82
2022-09-11T23:21:30.565Z,5.47
2022-09-11T23:24:31.374Z,6.32
2022-09-11T23:27:33.258Z,6.13
2022-09-11T23:30:39.326Z,5.80
2022-09-11T23:33:40.434Z,4.95
2022-09-11T23:36:42.386Z,4.88
2022-09-11T23:39:43.967Z,5.47
2022-09-11T23:42:44.957Z,5.65
2022-09-11T23:45:45.830Z,7.10
2022-09-11T23:48:47.501Z,7.07
2022-09-11T23:51:50.364Z,6.15
2022-09-11T23:54:51.463Z,6.70
2022-09-11T23:57:55.340Z,6.65
